createdAt,value
2019-06-20T00:02:05.892Z,16.32
2019-06-20T00:07:09.921Z,15.72
2019-06-20T00:12:14.051Z,16.50
2019-06-20T00:17:18.183Z,16.37
2019-06-20T00:22:22.113Z,17.70
2019-06-20T00:27:26.001Z,18.45
2019-06-20T00:32:29.985Z,17.70
2019-06-20T00:37:33.851Z,17.00
2019-06-20T00:42:37.922Z,16.73
2019-06-20T00:47:42.051Z,16.93
2019-06-20T00:52:46.082Z,16.30
2019-06-20T00:57:50.104Z,16.00
2019-06-20T01:02:54.233Z,16.32
2019-06-20T01:07:58.371Z,13.80
2019-06-20T01:13:02.391Z,14.65
2019-06-20T01:18:06.531Z,14.13
2019-06-20T01:23:10.552Z,12.58
2019-06-20T01:28:14.490Z,12.15
2019-06-20T01:33:18.614Z,13.08
2019-06-20T01:38:22.747Z,15.83
2019-06-20T01:43:26.871Z,14.68
2019-06-20T01:48:30.907Z,16.12
2019-06-20T01:53:35.039Z,14.10
2019-06-20T01:58:39.064Z,13.65
2019-06-20T02:03:43.092Z,13.90
2019-06-20T02:08:47.221Z,16.67
2019-06-20T02:14:06.555Z,16.70
2019-06-20T02:18:56.915Z,17.85
2019-06-20T02:24:00.951Z,17.23
2019-06-20T02:29:05.481Z,14.40
2019-06-20T02:34:09.523Z,18.98
2019-06-20T02:39:13.642Z,17.50
2019-06-20T02:44:29.750Z,19.25
2019-06-20T02:49:23.354Z,15.95
2019-06-20T02:54:27.373Z,17.15
2019-06-20T02:59:31.501Z,19.12
2019-06-20T03:04:35.521Z,20.17
2019-06-20T03:09:39.659Z,20.77
2019-06-20T03:14:45.779Z,19.25
2019-06-20T03:19:49.355Z,17.32
2019-06-20T03:24:53.381Z,19.17
2019-06-20T03:29:57.513Z,19.85
2019-06-20T03:35:01.641Z,19.90
2019-06-20T03:40:06.422Z,21.25
2019-06-20T03:45:10.722Z,20.27
2019-06-20T03:50:14.952Z,19.17
2019-06-20T03:55:18.981Z,19.05
2019-06-20T04:00:24.251Z,19.82
2019-06-20T04:11:07.412Z,18.52
2019-06-20T04:16:11.452Z,18.65
2019-06-20T04:21:15.683Z,18.17
2019-06-20T04:26:19.719Z,16.57
2019-06-20T04:31:23.742Z,17.87
2019-06-20T04:36:27.764Z,16.75
2019-06-20T04:41:31.793Z,16.73
2019-06-20T04:46:40.233Z,16.82
2019-06-20T04:51:44.131Z,16.37
2019-06-20T04:56:48.193Z,18.12
2019-06-20T05:01:52.211Z,18.65
2019-06-20T05:07:08.129Z,19.98
2019-06-20T05:12:12.141Z,17.73
2019-06-20T05:17:20.559Z,18.60
2019-06-20T05:22:25.532Z,17.73
2019-06-20T05:27:29.511Z,17.05
2019-06-20T05:32:33.581Z,18.67
2019-06-20T05:37:37.824Z,18.35
2019-06-20T05:42:41.959Z,17.07
2019-06-20T05:47:45.981Z,16.80
2019-06-20T05:52:50.111Z,16.25
2019-06-20T05:57:54.011Z,17.10
2019-06-20T06:02:58.252Z,17.20
2019-06-20T06:08:02.399Z,17.48
2019-06-20T06:13:06.541Z,17.17
2019-06-20T06:18:10.561Z,16.93
2019-06-20T06:23:14.697Z,17.52
2019-06-20T06:28:18.821Z,17.60
2019-06-20T06:33:22.952Z,16.80
2019-06-20T06:38:26.991Z,16.85
2019-06-20T06:43:31.529Z,17.75
2019-06-20T06:48:36.179Z,17.48
2019-06-20T06:53:40.307Z,18.42
2019-06-20T06:58:44.431Z,18.40
2019-06-20T07:03:48.361Z,17.77
2019-06-20T07:08:52.516Z,18.90
2019-06-20T07:13:56.622Z,19.42
2019-06-20T07:19:00.761Z,18.67
2019-06-20T07:24:04.781Z,19.15
2019-06-20T07:29:08.921Z,19.17
2019-06-20T07:34:12.801Z,19.40
2019-06-20T07:39:16.861Z,19.45
2019-06-20T07:44:21.003Z,21.40
2019-06-20T07:49:25.173Z,20.35
2019-06-20T07:54:29.361Z,18.90
2019-06-20T07:59:33.492Z,18.80
2019-06-20T08:04:37.399Z,19.70
2019-06-20T08:09:45.165Z,19.25
2019-06-20T08:14:47.014Z,18.57
2019-06-20T08:19:50.901Z,19.02
2019-06-20T08:24:55.013Z,18.00
2019-06-20T08:29:59.135Z,16.30
2019-06-20T08:35:04.440Z,18.75
2019-06-20T08:40:08.895Z,17.05
2019-06-20T08:45:13.401Z,18.95
2019-06-20T08:50:18.085Z,18.20
2019-06-20T08:55:24.691Z,19.30
2019-06-20T09:00:29.701Z,15.08
2019-06-20T09:05:34.061Z,16.73
2019-06-20T09:10:42.093Z,17.12
2019-06-20T09:15:46.129Z,15.93
2019-06-20T09:20:52.728Z,17.48
2019-06-20T09:25:55.968Z,17.65
2019-06-20T09:31:00.253Z,17.75
2019-06-20T09:36:04.289Z,16.73
2019-06-20T09:41:10.052Z,14.87
2019-06-20T09:46:13.992Z,15.98
2019-06-20T09:51:18.011Z,13.22
2019-06-20T09:56:22.001Z,12.40
2019-06-20T10:01:26.061Z,13.58
2019-06-20T10:06:30.194Z,11.40
2019-06-20T10:11:34.331Z,12.63
2019-06-20T10:16:45.806Z,13.30
2019-06-20T10:21:46.230Z,15.68
2019-06-20T10:26:49.692Z,15.95
2019-06-20T10:31:53.781Z,16.73
2019-06-20T10:36:57.952Z,17.17
2019-06-20T10:42:01.946Z,17.32
2019-06-20T10:47:06.012Z,16.37
2019-06-20T10:52:11.882Z,14.63
2019-06-20T10:57:15.919Z,15.93
2019-06-20T11:02:19.942Z,14.45
2019-06-20T11:07:23.972Z,15.28
2019-06-20T11:12:39.983Z,17.55
2019-06-20T11:17:33.422Z,17.25
2019-06-20T11:22:38.401Z,17.32
2019-06-20T11:27:43.240Z,17.87
2019-06-20T11:32:48.772Z,16.73
2019-06-20T11:37:52.891Z,13.03
2019-06-20T11:42:56.883Z,12.98
2019-06-20T11:48:00.923Z,8.98
2019-06-20T11:53:05.265Z,12.78
2019-06-20T11:58:09.381Z,10.82
2019-06-20T12:03:13.413Z,9.53
2019-06-20T12:08:17.321Z,10.13
2019-06-20T12:13:21.202Z,12.10
2019-06-20T12:18:25.291Z,12.05
2019-06-20T12:23:29.421Z,13.22
2019-06-20T12:28:33.341Z,14.55
2019-06-20T12:33:38.223Z,14.50
2019-06-20T12:38:43.275Z,14.78
2019-06-20T12:43:48.316Z,13.98
2019-06-20T12:48:52.542Z,17.82
2019-06-20T12:53:56.579Z,14.73
2019-06-20T12:59:00.601Z,15.40
2019-06-20T13:04:04.911Z,15.00
2019-06-20T13:09:09.071Z,14.23
2019-06-20T13:14:13.201Z,13.72
2019-06-20T13:19:17.131Z,14.80
2019-06-20T13:24:21.269Z,13.32
2019-06-20T13:29:25.509Z,13.78
2019-06-20T13:34:29.621Z,13.48
2019-06-20T13:39:33.761Z,13.53
2019-06-20T13:44:37.792Z,14.10
2019-06-20T13:49:41.909Z,13.80
2019-06-20T13:54:47.939Z,12.88
2019-06-20T13:59:52.934Z,12.68
2019-06-20T14:04:57.692Z,13.98
2019-06-20T14:10:01.731Z,14.75
2019-06-20T14:15:07.855Z,14.33
2019-06-20T14:20:12.441Z,13.30
2019-06-20T14:25:16.461Z,14.30
2019-06-20T14:30:21.273Z,15.25
2019-06-20T14:35:25.351Z,15.18
2019-06-20T14:40:29.241Z,16.17
2019-06-20T14:45:37.162Z,14.18
2019-06-20T14:50:39.791Z,13.18
2019-06-20T14:55:44.797Z,13.40
2019-06-20T15:00:49.886Z,13.08
2019-06-20T15:05:54.688Z,14.05
2019-06-20T15:10:58.602Z,16.45
2019-06-20T15:16:02.633Z,14.58
2019-06-20T15:21:06.491Z,14.87
2019-06-20T15:26:10.397Z,16.57
2019-06-20T15:31:14.482Z,17.02
2019-06-20T15:36:18.512Z,16.62
2019-06-20T15:41:22.657Z,18.30
2019-06-20T15:46:29.828Z,17.20
2019-06-20T15:51:32.557Z,16.17
2019-06-20T15:56:36.582Z,14.90
2019-06-20T16:01:40.611Z,14.70
2019-06-20T16:06:44.632Z,14.00
2019-06-20T16:11:48.673Z,13.00
2019-06-20T16:16:52.596Z,13.85
2019-06-20T16:21:56.641Z,14.90
2019-06-20T16:27:00.659Z,13.40
2019-06-20T16:32:04.883Z,12.98
2019-06-20T16:37:10.335Z,12.82
2019-06-20T16:42:15.299Z,13.60
2019-06-20T16:47:19.435Z,12.28
2019-06-20T16:52:23.568Z,12.30
2019-06-20T16:57:27.693Z,12.55
2019-06-20T17:02:31.723Z,12.78
2019-06-20T17:07:36.051Z,12.28
2019-06-20T17:12:39.942Z,11.83
2019-06-20T17:17:44.012Z,12.07
2019-06-20T17:22:48.042Z,12.33
2019-06-20T17:27:52.079Z,12.20
2019-06-20T17:32:56.112Z,12.58
2019-06-20T17:38:00.348Z,12.78
2019-06-20T17:43:04.481Z,12.82
2019-06-20T17:48:08.521Z,12.43
2019-06-20T17:53:13.951Z,11.95
2019-06-20T17:58:18.082Z,13.13
2019-06-20T18:03:22.002Z,13.45
2019-06-20T18:08:26.175Z,12.45
2019-06-20T18:13:30.189Z,12.30
2019-06-20T18:18:34.322Z,11.78
2019-06-20T18:23:38.441Z,12.60
2019-06-20T18:28:42.592Z,12.28
2019-06-20T18:33:46.702Z,13.00
2019-06-20T18:38:50.861Z,13.88
2019-06-20T18:43:55.132Z,13.78
2019-06-20T18:48:59.191Z,15.70
2019-06-20T18:54:03.112Z,18.15
2019-06-20T18:59:07.261Z,16.17
2019-06-20T19:04:12.015Z,15.32
2019-06-20T19:09:15.951Z,17.27
2019-06-20T19:14:20.062Z,16.77
2019-06-20T19:19:24.191Z,17.37
2019-06-20T19:24:28.331Z,16.10
2019-06-20T19:29:32.455Z,22.87
2019-06-20T19:34:36.582Z,24.30
2019-06-20T19:39:40.613Z,20.43
2019-06-20T19:44:44.531Z,21.33
2019-06-20T19:49:48.582Z,20.32
2019-06-20T19:54:53.842Z,17.42
2019-06-20T19:59:58.771Z,17.50
2019-06-20T20:05:17.812Z,16.90
2019-06-20T20:10:10.113Z,15.28
2019-06-20T20:15:14.651Z,16.37
2019-06-20T20:20:19.615Z,16.05
2019-06-20T20:25:23.831Z,16.80
2019-06-20T20:30:28.037Z,16.95
2019-06-20T20:35:35.779Z,17.35
2019-06-20T20:40:39.101Z,18.60
2019-06-20T20:45:43.003Z,19.62
2019-06-20T20:50:46.952Z,17.60
2019-06-20T20:55:50.901Z,17.87
2019-06-20T21:01:13.041Z,19.80
2019-06-20T21:06:17.161Z,17.60
2019-06-20T21:11:21.041Z,17.20
2019-06-20T21:16:25.116Z,18.27
2019-06-20T21:21:29.143Z,21.12
2019-06-20T21:26:48.378Z,19.27
2019-06-20T21:31:38.941Z,21.40
2019-06-20T21:36:42.971Z,20.35
2019-06-20T21:41:47.001Z,20.37
2019-06-20T21:46:51.239Z,22.85
2019-06-20T21:51:55.269Z,19.90
2019-06-20T21:56:59.411Z,23.42
2019-06-20T22:02:03.622Z,21.75
2019-06-20T22:07:07.660Z,19.87
2019-06-20T22:12:11.781Z,21.35
2019-06-20T22:17:15.811Z,19.95
2019-06-20T22:22:19.840Z,21.70
2019-06-20T22:27:23.871Z,20.02
2019-06-20T22:32:27.902Z,21.95
2019-06-20T22:37:31.935Z,23.42
2019-06-20T22:42:36.061Z,22.80
2019-06-20T22:47:40.292Z,23.12
2019-06-20T22:52:44.323Z,23.75
2019-06-20T22:57:48.565Z,25.20
2019-06-20T23:02:52.592Z,27.58
2019-06-20T23:07:56.612Z,23.50
2019-06-20T23:13:00.740Z,27.07
2019-06-20T23:18:04.841Z,21.33
2019-06-20T23:23:08.920Z,23.95
2019-06-20T23:28:12.847Z,24.12
2019-06-20T23:33:16.865Z,24.75
2019-06-20T23:38:21.209Z,26.42
2019-06-20T23:43:25.221Z,23.45
2019-06-20T23:48:29.261Z,24.05
2019-06-20T23:53:33.381Z,21.65
2019-06-20T23:58:37.512Z,28.23
